createdAt,value
2023-03-06T00:01:07.739Z,339.00
2023-03-06T00:05:07.811Z,338.00
2023-03-06T00:09:07.944Z,341.00
2023-03-06T00:13:08.069Z,344.00
2023-03-06T00:17:08.222Z,343.00
2023-03-06T00:21:08.435Z,342.00
2023-03-06T00:25:08.545Z,341.00
2023-03-06T00:29:08.700Z,341.00
2023-03-06T00:33:08.858Z,343.00
2023-03-06T00:37:09.000Z,345.00
2023-03-06T00:41:09.124Z,343.00
2023-03-06T00:45:09.296Z,338.00
2023-03-06T00:49:09.499Z,337.00
2023-03-06T00:53:09.618Z,338.00
2023-03-06T00:57:09.809Z,337.00
2023-03-06T01:01:10.037Z,337.00
2023-03-06T01:05:10.153Z,333.00
2023-03-06T01:09:10.336Z,333.00
2023-03-06T01:13:10.496Z,336.00
2023-03-06T01:17:10.655Z,337.00
2023-03-06T01:21:10.828Z,339.00
2023-03-06T01:25:11.008Z,339.00
2023-03-06T01:29:11.213Z,339.00
2023-03-06T01:33:11.393Z,341.00
2023-03-06T01:37:11.542Z,342.00
2023-03-06T01:41:11.778Z,341.00
2023-03-06T01:45:11.916Z,341.00
2023-03-06T01:49:12.143Z,343.00
2023-03-06T01:53:12.302Z,340.00
2023-03-06T01:57:12.573Z,340.00
2023-03-06T02:01:12.762Z,342.00
2023-03-06T02:05:12.995Z,342.00
2023-03-06T02:09:13.124Z,343.00
2023-03-06T02:13:13.091Z,344.00
2023-03-06T02:17:13.075Z,342.00
2023-03-06T02:21:13.050Z,341.00
2023-03-06T02:25:13.004Z,341.00
2023-03-06T02:29:12.957Z,341.00
2023-03-06T02:33:12.929Z,341.00
2023-03-06T02:37:12.889Z,343.00
2023-03-06T02:41:12.844Z,340.00
2023-03-06T02:45:12.798Z,338.00
2023-03-06T02:49:12.854Z,336.00
2023-03-06T02:53:12.817Z,335.00
2023-03-06T02:57:12.780Z,334.00
2023-03-06T03:01:12.773Z,335.00
2023-03-06T03:05:12.699Z,338.00
2023-03-06T03:09:12.649Z,342.00
2023-03-06T03:13:12.597Z,338.00
2023-03-06T03:17:12.600Z,334.00
2023-03-06T03:21:12.602Z,341.00
2023-03-06T03:25:12.485Z,340.00
2023-03-06T03:29:12.662Z,336.00
2023-03-06T03:33:12.607Z,334.00
2023-03-06T03:37:12.579Z,333.00
2023-03-06T03:41:12.563Z,334.00
2023-03-06T03:45:12.490Z,336.00
2023-03-06T03:49:12.503Z,338.00
2023-03-06T03:53:12.478Z,334.00
2023-03-06T03:57:12.405Z,336.00
2023-03-06T04:01:12.360Z,333.00
2023-03-06T04:05:12.377Z,335.00
2023-03-06T04:09:12.424Z,334.00
2023-03-06T04:13:12.413Z,332.00
2023-03-06T04:17:12.329Z,327.00
2023-03-06T04:21:12.295Z,324.00
2023-03-06T04:25:12.238Z,323.00
2023-03-06T04:29:12.211Z,321.00
2023-03-06T04:33:12.179Z,324.00
2023-03-06T04:37:12.157Z,326.00
2023-03-06T04:41:12.127Z,327.00
2023-03-06T04:45:12.112Z,330.00
2023-03-06T04:49:12.246Z,329.00
2023-03-06T04:53:12.175Z,328.00
2023-03-06T04:57:12.101Z,330.00
2023-03-06T05:01:12.184Z,333.00
2023-03-06T05:05:12.038Z,335.00
2023-03-06T05:09:11.979Z,348.00
2023-03-06T05:13:11.962Z,359.00
2023-03-06T05:17:11.914Z,366.00
2023-03-06T05:21:11.890Z,376.00
2023-03-06T05:25:12.395Z,380.00
2023-03-06T05:29:11.946Z,382.00
2023-03-06T05:33:12.031Z,387.00
2023-03-06T05:37:11.997Z,390.00
2023-03-06T05:41:11.979Z,387.00
2023-03-06T05:45:11.949Z,385.00
2023-03-06T05:49:11.942Z,386.00
2023-03-06T05:53:11.900Z,384.00
2023-03-06T05:57:11.914Z,383.00
2023-03-06T06:01:11.912Z,383.00
2023-03-06T06:05:13.190Z,379.00
2023-03-06T06:09:13.950Z,380.00
2023-03-06T06:13:11.990Z,380.00
2023-03-06T06:17:12.017Z,384.00
2023-03-06T06:21:12.062Z,383.00
2023-03-06T06:25:12.067Z,383.00
2023-03-06T06:29:12.157Z,384.00
2023-03-06T06:33:12.184Z,436.00
2023-03-06T06:37:12.152Z,450.00
2023-03-06T06:41:38.849Z,582.00
2023-03-06T06:45:13.106Z,657.00
2023-03-06T06:49:12.145Z,585.00
2023-03-06T06:53:12.457Z,578.00
2023-03-06T06:57:12.534Z,598.00
2023-03-06T07:01:12.727Z,612.00
2023-03-06T07:05:12.928Z,619.00
2023-03-06T07:09:12.991Z,627.00
2023-03-06T07:13:13.486Z,640.00
2023-03-06T07:17:13.152Z,643.00
2023-03-06T07:21:13.141Z,639.00
2023-03-06T07:25:13.168Z,650.00
2023-03-06T07:29:13.124Z,652.00
2023-03-06T07:33:13.125Z,658.00
2023-03-06T07:37:13.487Z,691.00
2023-03-06T07:41:13.537Z,617.00
2023-03-06T07:45:13.462Z,620.00
2023-03-06T07:49:13.480Z,634.00
2023-03-06T07:53:13.434Z,643.00
2023-03-06T07:57:13.383Z,652.00
2023-03-06T08:01:13.376Z,668.00
2023-03-06T08:05:13.318Z,670.00
2023-03-06T08:09:13.283Z,678.00
2023-03-06T08:13:13.213Z,689.00
2023-03-06T08:17:13.175Z,703.00
2023-03-06T08:21:13.213Z,705.00
2023-03-06T08:25:13.159Z,712.00
2023-03-06T08:29:13.130Z,721.00
2023-03-06T08:33:13.097Z,745.00
2023-03-06T08:37:13.508Z,653.00
2023-03-06T08:41:13.045Z,761.00
2023-03-06T08:45:13.207Z,764.00
2023-03-06T08:49:13.209Z,797.00
2023-03-06T08:53:13.437Z,835.00
2023-03-06T08:57:13.627Z,863.00
2023-03-06T09:01:13.806Z,888.00
2023-03-06T09:05:13.580Z,888.00
2023-03-06T09:09:13.489Z,920.00
2023-03-06T09:13:13.467Z,930.00
2023-03-06T09:17:13.434Z,935.00
2023-03-06T09:21:13.415Z,950.00
2023-03-06T09:25:13.442Z,968.00
2023-03-06T09:29:13.448Z,734.00
2023-03-06T09:33:13.287Z,582.00
2023-03-06T09:37:13.289Z,525.00
2023-03-06T09:41:13.532Z,486.00
2023-03-06T09:45:13.185Z,548.00
2023-03-06T09:49:13.506Z,625.00
2023-03-06T09:53:13.145Z,670.00
2023-03-06T09:59:47.123Z,738.00
2023-03-06T10:03:47.086Z,785.00
2023-03-06T10:07:47.103Z,816.00
2023-03-06T10:11:47.097Z,852.00
2023-03-06T10:15:47.271Z,863.00
2023-03-06T10:19:46.715Z,886.00
2023-03-06T10:23:46.666Z,881.00
2023-03-06T10:27:47.116Z,876.00
2023-03-06T10:31:47.149Z,845.00
2023-03-06T10:35:46.660Z,689.00
2023-03-06T10:39:46.530Z,705.00
2023-03-06T10:43:46.679Z,682.00
2023-03-06T10:47:46.451Z,757.00
2023-03-06T10:51:46.605Z,777.00
2023-03-06T10:55:46.745Z,774.00
2023-03-06T10:59:46.911Z,772.00
2023-03-06T11:03:47.147Z,794.00
2023-03-06T11:07:46.972Z,837.00
2023-03-06T11:11:54.586Z,872.00
2023-03-06T11:15:49.641Z,888.00
2023-03-06T11:19:47.012Z,906.00
2023-03-06T11:23:47.182Z,926.00
2023-03-06T11:27:47.206Z,930.00
2023-03-06T11:31:47.063Z,747.00
2023-03-06T11:35:46.954Z,826.00
2023-03-06T11:39:46.876Z,841.00
2023-03-06T11:43:47.137Z,925.00
2023-03-06T11:47:46.770Z,923.00
2023-03-06T11:51:46.753Z,900.00
2023-03-06T11:55:46.661Z,919.00
2023-03-06T11:59:46.779Z,956.00
2023-03-06T12:03:46.602Z,943.00
2023-03-06T12:07:46.777Z,941.00
2023-03-06T12:11:46.921Z,978.00
2023-03-06T12:15:47.157Z,973.00
2023-03-06T12:19:47.334Z,979.00
2023-03-06T12:23:47.696Z,946.00
2023-03-06T12:27:48.392Z,854.00
2023-03-06T12:31:47.993Z,793.00
2023-03-06T12:35:48.229Z,736.00
2023-03-06T12:39:48.079Z,678.00
2023-03-06T12:43:48.061Z,618.00
2023-03-06T12:47:48.015Z,593.00
2023-03-06T12:51:48.011Z,568.00
2023-03-06T12:55:47.958Z,540.00
2023-03-06T12:59:47.978Z,518.00
2023-03-06T13:03:47.910Z,498.00
2023-03-06T13:07:47.850Z,552.00
2023-03-06T13:11:47.828Z,533.00
2023-03-06T13:15:48.232Z,514.00
2023-03-06T13:19:47.761Z,501.00
2023-03-06T13:23:47.677Z,491.00
2023-03-06T13:27:47.700Z,542.00
2023-03-06T13:31:47.610Z,539.00
2023-03-06T13:35:47.726Z,540.00
2023-03-06T13:39:47.744Z,550.00
2023-03-06T13:43:47.805Z,560.00
2023-03-06T13:51:49.232Z,575.00
2023-03-06T13:55:47.707Z,576.00
2023-03-06T13:59:49.050Z,577.00
2023-03-06T14:03:48.247Z,566.00
2023-03-06T14:07:47.656Z,558.00
2023-03-06T14:11:47.775Z,551.00
2023-03-06T14:15:47.634Z,544.00
2023-03-06T14:19:47.546Z,539.00
2023-03-06T14:23:47.473Z,535.00
2023-03-06T14:27:47.510Z,533.00
2023-03-06T14:31:47.412Z,530.00
2023-03-06T14:35:47.362Z,527.00
2023-03-06T14:39:47.781Z,548.00
2023-03-06T14:43:47.750Z,544.00
2023-03-06T14:47:47.732Z,526.00
2023-03-06T14:51:47.232Z,497.00
2023-03-06T14:55:47.163Z,480.00
2023-03-06T14:59:47.140Z,463.00
2023-03-06T15:03:47.108Z,447.00
2023-03-06T15:07:47.041Z,438.00
2023-03-06T15:11:47.055Z,436.00
2023-03-06T15:15:47.061Z,425.00
2023-03-06T15:19:46.964Z,414.00
2023-03-06T15:23:46.993Z,415.00
2023-03-06T15:27:46.861Z,412.00
2023-03-06T15:31:46.934Z,411.00
2023-03-06T15:35:47.122Z,410.00
2023-03-06T15:39:47.113Z,409.00
2023-03-06T15:43:47.183Z,410.00
2023-03-06T15:47:47.342Z,405.00
2023-03-06T15:51:47.552Z,410.00
2023-03-06T15:55:47.498Z,411.00
2023-03-06T15:59:47.498Z,412.00
2023-03-06T16:03:47.542Z,415.00
2023-03-06T16:07:47.408Z,415.00
2023-03-06T16:11:47.409Z,415.00
2023-03-06T16:15:47.349Z,418.00
2023-03-06T16:19:47.381Z,422.00
2023-03-06T16:23:47.292Z,418.00
2023-03-06T16:27:47.234Z,415.00
2023-03-06T16:31:47.199Z,411.00
2023-03-06T16:35:47.181Z,412.00
2023-03-06T16:39:47.155Z,411.00
2023-03-06T16:43:47.085Z,407.00
2023-03-06T16:47:47.049Z,407.00
2023-03-06T16:51:47.058Z,404.00
2023-03-06T16:55:46.963Z,405.00
2023-03-06T16:59:46.944Z,402.00
2023-03-06T17:03:46.919Z,404.00
2023-03-06T17:07:46.884Z,401.00
2023-03-06T17:11:47.284Z,402.00
2023-03-06T17:15:46.857Z,395.00
2023-03-06T17:19:46.752Z,399.00
2023-03-06T17:23:46.700Z,404.00
2023-03-06T17:27:46.885Z,403.00
2023-03-06T17:31:47.058Z,400.00
2023-03-06T17:35:47.254Z,403.00
2023-03-06T17:39:47.358Z,406.00
2023-03-06T17:43:47.516Z,404.00
2023-03-06T17:47:49.138Z,405.00
2023-03-06T17:51:47.784Z,405.00
2023-03-06T17:55:47.926Z,405.00
2023-03-06T17:59:48.038Z,403.00
2023-03-06T18:03:48.175Z,398.00
2023-03-06T18:07:48.356Z,401.00
2023-03-06T18:11:48.477Z,404.00
2023-03-06T18:15:48.664Z,404.00
2023-03-06T18:19:48.803Z,407.00
2023-03-06T18:23:49.081Z,406.00
2023-03-06T18:27:49.149Z,401.00
2023-03-06T18:31:49.310Z,397.00
2023-03-06T18:35:49.499Z,395.00
2023-03-06T18:39:49.606Z,396.00
2023-03-06T18:43:49.762Z,406.00
2023-03-06T18:47:49.967Z,418.00
2023-03-06T18:51:50.161Z,416.00
2023-03-06T18:55:50.373Z,408.00
2023-03-06T18:59:50.588Z,404.00
2023-03-06T19:03:50.609Z,404.00
2023-03-06T19:07:50.524Z,400.00
2023-03-06T19:11:50.470Z,400.00
2023-03-06T19:15:50.472Z,401.00
2023-03-06T19:19:50.384Z,400.00
2023-03-06T19:23:50.393Z,399.00
2023-03-06T19:27:50.362Z,397.00
2023-03-06T19:31:50.343Z,393.00
2023-03-06T19:35:50.335Z,387.00
2023-03-06T19:39:50.250Z,391.00
2023-03-06T19:43:50.392Z,387.00
2023-03-06T19:47:50.592Z,386.00
2023-03-06T19:51:50.766Z,382.00
2023-03-06T19:55:50.740Z,381.00
2023-03-06T19:59:50.822Z,382.00
2023-03-06T20:03:50.687Z,386.00
2023-03-06T20:07:50.620Z,388.00
2023-03-06T20:11:50.551Z,393.00
2023-03-06T20:15:50.886Z,393.00
2023-03-06T20:19:50.493Z,391.00
2023-03-06T20:23:50.465Z,390.00
2023-03-06T20:27:50.470Z,383.00
2023-03-06T20:31:50.368Z,379.00
2023-03-06T20:35:50.420Z,381.00
2023-03-06T20:39:50.419Z,387.00
2023-03-06T20:43:50.542Z,382.00
2023-03-06T20:47:50.707Z,382.00
2023-03-06T20:51:50.812Z,381.00
2023-03-06T20:55:50.973Z,383.00
2023-03-06T20:59:51.106Z,385.00
2023-03-06T21:03:51.144Z,384.00
2023-03-06T21:07:51.196Z,379.00
2023-03-06T21:11:51.255Z,381.00
2023-03-06T21:15:51.309Z,382.00
2023-03-06T21:19:51.289Z,382.00
2023-03-06T21:23:51.338Z,381.00
2023-03-06T21:27:51.380Z,380.00
2023-03-06T21:31:51.406Z,383.00
2023-03-06T21:35:51.559Z,385.00
2023-03-06T21:39:51.604Z,386.00
2023-03-06T21:43:51.508Z,385.00
2023-03-06T21:47:51.465Z,384.00
2023-03-06T21:51:51.515Z,387.00
2023-03-06T21:55:51.441Z,385.00
2023-03-06T21:59:51.424Z,385.00
2023-03-06T22:03:51.464Z,385.00
2023-03-06T22:07:51.407Z,387.00
2023-03-06T22:11:51.381Z,387.00
2023-03-06T22:15:51.402Z,385.00
2023-03-06T22:19:51.351Z,388.00
2023-03-06T22:23:51.412Z,390.00
2023-03-06T22:27:51.462Z,387.00
2023-03-06T22:31:51.516Z,384.00
2023-03-06T22:35:51.553Z,383.00
2023-03-06T22:39:51.605Z,380.00
2023-03-06T22:43:51.665Z,382.00
2023-03-06T22:47:55.181Z,381.00
2023-03-06T22:51:52.707Z,382.00
2023-03-06T22:55:51.691Z,384.00
2023-03-06T22:59:51.645Z,383.00
2023-03-06T23:03:51.571Z,386.00
2023-03-06T23:07:51.565Z,381.00
2023-03-06T23:11:51.603Z,380.00
2023-03-06T23:15:51.710Z,381.00
2023-03-06T23:19:51.745Z,385.00
2023-03-06T23:23:51.852Z,386.00
2023-03-06T23:27:51.920Z,384.00
2023-03-06T23:31:52.046Z,390.00
2023-03-06T23:35:52.217Z,385.00
2023-03-06T23:39:52.467Z,384.00
2023-03-06T23:43:54.957Z,383.00
2023-03-06T23:47:52.253Z,384.00
2023-03-06T23:51:52.196Z,381.00
2023-03-06T23:55:52.164Z,379.00
2023-03-06T23:59:52.146Z,378.00
